createdAt,value
2018-07-20T00:01:27.607Z,58.30
2018-07-20T00:03:56.675Z,58.40
2018-07-20T00:06:25.728Z,58.20
2018-07-20T00:08:54.824Z,58.70
2018-07-20T00:11:23.895Z,58.50
2018-07-20T00:13:52.971Z,59.00
2018-07-20T00:16:22.027Z,58.50
2018-07-20T00:18:51.091Z,58.20
2018-07-20T00:21:20.150Z,58.30
2018-07-20T00:23:49.235Z,58.60
2018-07-20T00:26:18.283Z,58.50
2018-07-20T00:28:47.351Z,58.90
2018-07-20T00:31:16.404Z,58.90
2018-07-20T00:33:45.471Z,59.00
2018-07-20T00:36:14.553Z,58.90
2018-07-20T00:38:43.604Z,59.00
2018-07-20T00:41:12.720Z,59.30
2018-07-20T00:43:41.747Z,59.30
2018-07-20T00:46:10.816Z,59.50
2018-07-20T00:48:39.871Z,59.80
2018-07-20T00:51:08.939Z,60.00
2018-07-20T00:53:37.992Z,60.20
2018-07-20T00:56:07.083Z,60.70
2018-07-20T00:58:36.231Z,60.40
2018-07-20T01:01:05.499Z,60.30
2018-07-20T01:03:34.550Z,60.70
2018-07-20T01:11:01.048Z,62.40
2018-07-20T01:13:30.083Z,61.40
2018-07-20T01:15:59.148Z,61.70
2018-07-20T01:18:28.196Z,62.30
2018-07-20T01:20:57.264Z,62.90
2018-07-20T01:23:26.312Z,62.00
2018-07-20T01:25:55.384Z,62.10
2018-07-20T01:28:24.429Z,62.30
2018-07-20T01:30:53.496Z,62.80
2018-07-20T01:33:22.551Z,63.10
2018-07-20T01:35:51.615Z,63.50
2018-07-20T01:38:20.660Z,64.10
2018-07-20T01:40:49.726Z,64.20
2018-07-20T01:43:18.804Z,64.50
2018-07-20T01:45:47.854Z,65.40
2018-07-20T01:50:45.635Z,65.80
2018-07-20T01:53:14.671Z,66.00
2018-07-20T01:55:43.736Z,66.50
2018-07-20T02:00:41.488Z,66.80
2018-07-20T02:03:10.546Z,66.90
2018-07-20T02:05:39.614Z,67.50
2018-07-20T02:08:08.688Z,67.30
2018-07-20T02:10:37.764Z,67.40
2018-07-20T02:13:06.845Z,68.00
2018-07-20T02:15:35.928Z,67.90
2018-07-20T02:18:05.140Z,68.00
2018-07-20T02:20:34.187Z,67.90
2018-07-20T02:25:31.939Z,68.50
2018-07-20T02:28:01.019Z,68.50
2018-07-20T02:30:30.055Z,69.10
2018-07-20T02:32:59.124Z,69.40
2018-07-20T02:35:29.196Z,69.50
2018-07-20T02:37:58.259Z,69.20
2018-07-20T02:40:27.352Z,69.20
2018-07-20T02:42:56.415Z,69.20
2018-07-20T02:45:25.459Z,69.90
2018-07-20T02:52:51.949Z,69.70
2018-07-20T02:55:21.004Z,70.00
2018-07-20T02:57:50.076Z,70.50
2018-07-20T03:00:19.128Z,71.10
2018-07-20T03:02:48.204Z,71.20
2018-07-20T03:05:17.284Z,71.00
2018-07-20T03:07:46.358Z,71.20
2018-07-20T03:10:15.408Z,71.10
2018-07-20T03:12:44.499Z,71.30
2018-07-20T03:17:42.242Z,72.00
2018-07-20T03:20:11.301Z,72.90
2018-07-20T03:22:40.379Z,71.70
2018-07-20T03:27:38.107Z,72.00
2018-07-20T03:30:07.192Z,72.00
2018-07-20T03:32:36.357Z,72.10
2018-07-20T03:35:05.660Z,70.90
2018-07-20T03:40:03.887Z,71.90
2018-07-20T03:42:32.930Z,71.40
2018-07-20T03:47:30.688Z,71.20
2018-07-20T03:49:59.751Z,71.30
2018-07-20T03:52:28.907Z,71.40
2018-07-20T03:54:57.980Z,71.60
2018-07-20T03:57:27.039Z,72.10
2018-07-20T03:59:56.103Z,72.50
2018-07-20T04:04:53.907Z,74.30
2018-07-20T04:07:22.951Z,74.20
2018-07-20T04:09:52.015Z,74.10
2018-07-20T04:12:21.093Z,74.10
2018-07-20T04:14:50.179Z,74.00
2018-07-20T04:17:19.223Z,73.50
2018-07-20T04:19:48.291Z,72.50
2018-07-20T04:22:17.334Z,72.50
2018-07-20T04:24:46.407Z,72.10
2018-07-20T04:27:15.851Z,72.10
2018-07-20T04:32:13.597Z,72.10
2018-07-20T04:34:42.660Z,71.70
2018-07-20T04:37:11.714Z,71.70
2018-07-20T04:39:40.789Z,70.70
2018-07-20T04:42:09.835Z,70.70
2018-07-20T04:44:38.904Z,69.80
2018-07-20T04:47:07.955Z,69.50
2018-07-20T04:49:37.028Z,68.90
2018-07-20T04:52:06.083Z,68.50
2018-07-20T04:54:35.147Z,68.70
2018-07-20T04:57:04.195Z,68.40
2018-07-20T04:59:33.251Z,67.90
2018-07-20T05:02:02.303Z,67.70
2018-07-20T05:04:31.376Z,67.60
2018-07-20T05:07:00.421Z,67.60
2018-07-20T05:09:29.487Z,67.30
2018-07-20T05:11:58.547Z,66.40
2018-07-20T05:14:27.628Z,66.10
2018-07-20T05:16:56.723Z,66.10
2018-07-20T05:19:25.801Z,65.10
2018-07-20T05:21:54.936Z,65.80
2018-07-20T05:24:23.985Z,65.90
2018-07-20T05:26:53.077Z,66.10
2018-07-20T05:29:22.239Z,66.50
2018-07-20T05:34:20.025Z,66.80
2018-07-20T05:39:17.775Z,67.70
2018-07-20T05:41:46.847Z,67.80
2018-07-20T05:44:15.895Z,67.80
2018-07-20T05:51:42.344Z,67.40
2018-07-20T05:54:11.399Z,68.10
2018-07-20T05:56:40.476Z,69.00
2018-07-20T05:59:09.530Z,70.00
2018-07-20T06:01:38.624Z,70.60
2018-07-20T06:04:07.758Z,70.70
2018-07-20T06:06:36.796Z,70.70
2018-07-20T06:09:08.857Z,70.80
2018-07-20T06:11:37.950Z,69.90
2018-07-20T06:14:07.286Z,69.30
2018-07-20T06:16:36.349Z,69.30
2018-07-20T06:19:05.641Z,68.10
2018-07-20T06:24:03.340Z,67.10
2018-07-20T06:26:32.416Z,67.10
2018-07-20T06:29:01.467Z,67.10
2018-07-20T06:31:30.627Z,66.50
2018-07-20T06:33:59.691Z,65.90
2018-07-20T06:36:28.762Z,66.20
2018-07-20T06:38:57.803Z,66.40
2018-07-20T06:41:26.899Z,66.10
2018-07-20T06:43:55.983Z,66.10
2018-07-20T06:46:25.064Z,67.10
2018-07-20T06:51:22.815Z,67.30
2018-07-20T06:53:51.887Z,67.20
2018-07-20T06:56:20.931Z,66.40
2018-07-20T06:58:50.012Z,65.80
2018-07-20T07:01:19.100Z,65.50
2018-07-20T07:03:48.188Z,65.00
2018-07-20T07:06:17.239Z,64.40
2018-07-20T07:08:46.325Z,64.20
2018-07-20T07:11:15.444Z,63.40
2018-07-20T07:13:44.502Z,62.20
2018-07-20T07:18:42.256Z,61.90
2018-07-20T07:21:11.303Z,60.70
2018-07-20T07:23:40.422Z,60.80
2018-07-20T07:26:09.459Z,60.80
2018-07-20T07:28:38.540Z,59.60
2018-07-20T07:31:07.872Z,59.60
2018-07-20T07:33:36.937Z,58.60
2018-07-20T07:36:06.019Z,58.50
2018-07-20T07:38:35.117Z,57.60
2018-07-20T07:41:04.235Z,57.20
2018-07-20T07:43:33.302Z,56.80
2018-07-20T07:46:02.352Z,55.80
2018-07-20T07:51:00.108Z,55.80
2018-07-20T07:53:29.167Z,55.20
2018-07-20T07:55:58.225Z,54.30
2018-07-20T07:58:27.309Z,53.80
2018-07-20T08:00:56.347Z,53.50
2018-07-20T08:03:25.471Z,53.70
2018-07-20T08:05:55.008Z,52.30
2018-07-20T08:08:24.080Z,51.90
2018-07-20T08:10:53.144Z,50.80
2018-07-20T08:13:22.212Z,51.40
2018-07-20T08:20:48.644Z,49.10
2018-07-20T08:23:17.704Z,49.00
2018-07-20T08:25:46.781Z,47.20
2018-07-20T08:28:15.833Z,46.40
2018-07-20T08:30:44.905Z,47.30
2018-07-20T08:33:13.960Z,46.90
2018-07-20T08:38:11.707Z,45.80
2018-07-20T08:40:40.772Z,46.30
2018-07-20T08:43:09.863Z,45.30
2018-07-20T08:45:38.950Z,44.60
2018-07-20T08:48:08.026Z,45.10
2018-07-20T08:50:37.096Z,45.40
2018-07-20T08:53:06.154Z,44.60
2018-07-20T08:55:35.207Z,44.20
2018-07-20T08:58:04.250Z,43.70
2018-07-20T09:00:33.328Z,43.10
2018-07-20T09:03:02.381Z,43.40
2018-07-20T09:05:31.457Z,43.20
2018-07-20T09:08:00.518Z,42.30
2018-07-20T09:10:29.596Z,41.60
2018-07-20T09:12:58.668Z,42.30
2018-07-20T09:15:27.746Z,42.40
2018-07-20T09:17:56.796Z,42.20
2018-07-20T09:20:26.127Z,42.70
2018-07-20T09:22:55.163Z,41.90
2018-07-20T09:25:24.236Z,40.80
2018-07-20T09:27:53.295Z,40.60
2018-07-20T09:30:22.391Z,41.10
2018-07-20T09:32:51.473Z,40.30
2018-07-20T09:35:20.536Z,40.20
2018-07-20T09:37:49.586Z,40.40
2018-07-20T09:40:18.652Z,39.80
2018-07-20T09:45:16.427Z,38.80
2018-07-20T09:47:45.467Z,38.80
2018-07-20T09:50:14.555Z,38.50
2018-07-20T09:52:43.619Z,37.70
2018-07-20T09:55:12.675Z,37.60
2018-07-20T09:57:41.743Z,37.00
2018-07-20T10:00:10.788Z,36.70
2018-07-20T10:02:39.859Z,36.10
2018-07-20T10:05:08.918Z,35.70
2018-07-20T10:07:37.980Z,35.60
2018-07-20T10:10:07.028Z,35.40
2018-07-20T10:12:36.149Z,34.70
2018-07-20T10:15:05.236Z,34.40
2018-07-20T10:17:34.540Z,34.40
2018-07-20T10:20:03.652Z,34.30
2018-07-20T10:22:32.727Z,35.70
2018-07-20T10:25:02.711Z,33.90
2018-07-20T10:27:31.784Z,33.50
2018-07-20T10:30:00.827Z,33.30
2018-07-20T10:32:29.895Z,32.60
2018-07-20T10:34:58.948Z,30.20
2018-07-20T10:37:28.025Z,29.10
2018-07-20T10:39:57.072Z,30.00
2018-07-20T10:47:23.488Z,28.90
2018-07-20T10:49:52.546Z,28.00
2018-07-20T10:52:21.611Z,28.40
2018-07-20T10:54:50.663Z,28.00
2018-07-20T10:57:19.979Z,28.50
2018-07-20T10:59:49.252Z,27.60
2018-07-20T11:02:18.333Z,28.00
2018-07-20T11:04:47.431Z,28.40
2018-07-20T11:07:16.499Z,29.00
2018-07-20T11:09:45.556Z,29.10
2018-07-20T11:12:14.652Z,30.00
2018-07-20T11:14:43.704Z,30.00
2018-07-20T11:17:12.779Z,30.00
2018-07-20T11:19:41.872Z,28.80
2018-07-20T11:22:10.920Z,27.40
2018-07-20T11:24:39.990Z,27.00
2018-07-20T11:29:37.733Z,29.40
2018-07-20T11:32:07.063Z,28.40
2018-07-20T11:34:36.181Z,28.40
2018-07-20T11:42:02.641Z,27.30
2018-07-20T11:47:00.411Z,27.50
2018-07-20T11:49:29.480Z,27.40
2018-07-20T11:51:58.535Z,26.90
2018-07-20T11:54:27.611Z,26.20
2018-07-20T12:04:23.574Z,26.10
2018-07-20T12:06:52.680Z,25.70
2018-07-20T12:09:21.735Z,26.50
2018-07-20T12:11:50.799Z,25.70
2018-07-20T12:14:19.889Z,26.00
2018-07-20T12:16:48.930Z,25.50
2018-07-20T12:19:18.011Z,24.90
2018-07-20T12:21:47.139Z,25.70
2018-07-20T12:24:16.211Z,25.60
2018-07-20T12:26:45.267Z,25.50
2018-07-20T12:29:14.341Z,25.40
2018-07-20T12:34:12.129Z,25.30
2018-07-20T12:39:10.983Z,25.90
2018-07-20T12:41:40.580Z,25.70
2018-07-20T12:44:09.676Z,25.30
2018-07-20T12:46:38.905Z,26.10
2018-07-20T12:49:07.976Z,24.60
2018-07-20T12:51:37.066Z,24.90
2018-07-20T12:54:06.140Z,24.30
2018-07-20T12:56:35.202Z,23.20
2018-07-20T12:59:04.277Z,21.90
2018-07-20T13:01:33.351Z,21.30
2018-07-20T13:04:02.394Z,21.00
2018-07-20T13:06:31.479Z,21.50
2018-07-20T13:09:00.520Z,21.60
2018-07-20T13:11:29.618Z,21.40
2018-07-20T13:13:58.679Z,20.50
2018-07-20T13:16:27.751Z,20.30
2018-07-20T13:18:56.791Z,19.60
2018-07-20T13:26:23.231Z,20.90
2018-07-20T13:28:52.292Z,20.80
2018-07-20T13:31:21.351Z,20.70
2018-07-20T13:36:19.339Z,19.30
2018-07-20T13:41:17.084Z,19.60
2018-07-20T13:43:46.155Z,20.20
2018-07-20T13:46:15.215Z,20.40
2018-07-20T13:53:41.699Z,20.20
2018-07-20T13:56:10.758Z,21.10
2018-07-20T13:58:39.827Z,23.00
2018-07-20T14:01:08.879Z,22.40
2018-07-20T14:03:37.956Z,21.40
2018-07-20T14:06:07.162Z,20.60
2018-07-20T14:13:33.648Z,19.20
2018-07-20T14:18:31.447Z,19.40
2018-07-20T14:21:00.501Z,18.90
2018-07-20T14:23:29.576Z,19.40
2018-07-20T14:25:58.632Z,18.60
2018-07-20T14:28:27.695Z,17.90
2018-07-20T14:30:56.746Z,17.70
2018-07-20T14:33:25.861Z,17.30
2018-07-20T14:35:54.975Z,17.30
2018-07-20T14:38:24.066Z,17.70
2018-07-20T14:40:53.150Z,18.00
2018-07-20T14:43:22.248Z,18.60
2018-07-20T14:45:51.352Z,19.00
2018-07-20T14:48:20.420Z,19.10
2018-07-20T14:50:49.504Z,18.40
2018-07-20T14:53:18.903Z,18.40
2018-07-20T14:55:47.971Z,17.90
2018-07-20T15:00:45.862Z,17.40
2018-07-20T15:05:43.600Z,18.00
2018-07-20T15:08:12.724Z,18.30
2018-07-20T15:10:41.813Z,18.00
2018-07-20T15:13:10.851Z,18.60
2018-07-20T15:15:39.927Z,18.50
2018-07-20T15:20:38.200Z,17.90
2018-07-20T15:23:07.259Z,17.70
2018-07-20T15:25:36.327Z,17.30
2018-07-20T15:28:05.547Z,17.70
2018-07-20T15:30:34.619Z,17.30
2018-07-20T15:33:03.700Z,17.20
2018-07-20T15:38:01.519Z,16.60
2018-07-20T15:40:30.551Z,16.00
2018-07-20T15:42:59.606Z,15.60
2018-07-20T15:45:28.764Z,16.10
2018-07-20T15:47:57.836Z,15.60
2018-07-20T15:50:27.004Z,16.30
2018-07-20T15:53:36.251Z,15.90
2018-07-20T15:55:25.160Z,15.50
2018-07-20T16:00:23.036Z,15.70
2018-07-20T16:07:49.587Z,16.40
2018-07-20T16:10:18.635Z,16.20
2018-07-20T16:12:47.736Z,15.90
2018-07-20T16:15:16.945Z,16.10
2018-07-20T16:17:46.023Z,15.60
2018-07-20T16:20:15.067Z,15.80
2018-07-20T16:22:44.156Z,15.90
2018-07-20T16:25:13.207Z,16.20
2018-07-20T16:27:42.281Z,16.60
2018-07-20T16:30:11.567Z,17.00
2018-07-20T16:32:40.652Z,16.90
2018-07-20T16:35:09.715Z,17.60
2018-07-20T16:37:38.800Z,17.80
2018-07-20T16:40:07.851Z,17.60
2018-07-20T16:42:36.915Z,17.30
2018-07-20T16:45:05.972Z,17.40
2018-07-20T16:47:35.063Z,17.00
2018-07-20T16:52:33.087Z,16.40
2018-07-20T16:55:02.143Z,16.40
2018-07-20T16:57:31.220Z,16.60
2018-07-20T17:00:00.276Z,16.70
2018-07-20T17:02:29.367Z,16.90
2018-07-20T17:04:58.499Z,17.30
2018-07-20T17:07:27.550Z,17.60
2018-07-20T17:09:56.623Z,17.40
2018-07-20T17:17:23.111Z,17.20
2018-07-20T17:19:52.185Z,17.40
2018-07-20T17:22:21.230Z,17.30
2018-07-20T17:24:50.303Z,18.00
2018-07-20T17:27:19.343Z,18.70
2018-07-20T17:29:48.419Z,18.50
2018-07-20T17:32:17.487Z,18.00
2018-07-20T17:34:46.559Z,18.00
2018-07-20T17:37:15.615Z,18.20
2018-07-20T17:39:44.692Z,17.70
2018-07-20T17:42:13.744Z,17.90
2018-07-20T17:44:42.809Z,18.10
2018-07-20T17:47:11.855Z,18.20
2018-07-20T17:49:40.931Z,18.30
2018-07-20T17:52:09.988Z,18.30
2018-07-20T17:54:39.063Z,18.80
2018-07-20T17:57:08.331Z,19.00
2018-07-20T18:04:35.187Z,19.70
2018-07-20T18:07:04.249Z,19.90
2018-07-20T18:09:33.328Z,19.90
2018-07-20T18:12:02.420Z,20.10
2018-07-20T18:14:31.490Z,20.70
2018-07-20T18:19:29.244Z,21.10
2018-07-20T18:21:58.299Z,21.30
2018-07-20T18:24:27.439Z,21.90
2018-07-20T18:26:56.524Z,22.60
2018-07-20T18:29:25.631Z,23.10
2018-07-20T18:32:01.282Z,23.30
2018-07-20T18:34:30.381Z,24.10
2018-07-20T18:36:59.447Z,24.50
2018-07-20T18:39:28.499Z,25.70
2018-07-20T18:46:54.918Z,28.00
2018-07-20T18:49:23.971Z,28.60
2018-07-20T18:56:50.399Z,30.00
2018-07-20T18:59:19.555Z,30.70
2018-07-20T19:01:48.627Z,32.10
2018-07-20T19:06:46.371Z,32.60
2018-07-20T19:09:15.416Z,33.50
2018-07-20T19:14:13.175Z,34.10
2018-07-20T19:16:42.247Z,34.70
2018-07-20T19:19:11.296Z,35.00
2018-07-20T19:21:40.355Z,35.70
2018-07-20T19:24:09.412Z,36.60
2018-07-20T19:26:38.489Z,37.90
2018-07-20T19:29:07.535Z,37.70
2018-07-20T19:31:36.612Z,38.30
2018-07-20T19:34:05.691Z,39.00
2018-07-20T19:36:34.823Z,39.70
2018-07-20T19:39:05.819Z,40.60
2018-07-20T19:41:34.917Z,40.20
2018-07-20T19:44:03.964Z,40.30
2018-07-20T19:46:33.073Z,40.60
2018-07-20T19:49:02.314Z,39.90
2018-07-20T19:51:31.380Z,40.50
2018-07-20T19:54:00.449Z,41.10
2018-07-20T19:56:29.504Z,41.80
2018-07-20T19:58:58.596Z,42.00
2018-07-20T20:01:27.660Z,42.60
2018-07-20T20:03:56.723Z,42.80
2018-07-20T20:06:25.775Z,43.50
2018-07-20T20:08:54.842Z,43.00
2018-07-20T20:11:23.916Z,43.70
2018-07-20T20:16:21.950Z,43.70
2018-07-20T20:21:19.692Z,43.80
2018-07-20T20:23:48.764Z,44.50
2018-07-20T20:26:17.811Z,45.00
2018-07-20T20:28:46.887Z,44.80
2018-07-20T20:31:15.940Z,44.90
2018-07-20T20:33:45.013Z,45.90
2018-07-20T20:36:14.066Z,45.50
2018-07-20T20:38:43.139Z,45.20
2018-07-20T20:41:12.319Z,44.30
2018-07-20T20:43:41.414Z,44.50
2018-07-20T20:46:10.480Z,45.10
2018-07-20T20:51:08.240Z,44.90
2018-07-20T20:53:37.354Z,44.50
2018-07-20T20:56:06.426Z,44.50
2018-07-20T20:58:35.503Z,44.50
2018-07-20T21:01:04.568Z,45.00
2018-07-20T21:03:33.640Z,45.00
2018-07-20T21:06:02.710Z,45.30
2018-07-20T21:08:31.775Z,45.10
2018-07-20T21:11:00.848Z,45.40
2018-07-20T21:13:29.951Z,45.70
2018-07-20T21:15:59.027Z,46.00
2018-07-20T21:23:25.460Z,46.20
2018-07-20T21:25:54.542Z,46.50
2018-07-20T21:28:23.583Z,46.60
2018-07-20T21:38:18.705Z,47.20
2018-07-20T21:40:47.769Z,47.20
2018-07-20T21:43:16.806Z,47.10
2018-07-20T21:45:45.936Z,47.50
2018-07-20T21:50:43.676Z,47.60
2018-07-20T21:53:12.728Z,47.60
2018-07-20T21:58:10.720Z,47.80
2018-07-20T22:00:39.788Z,47.70
2018-07-20T22:03:08.840Z,48.00
2018-07-20T22:05:37.905Z,48.00
2018-07-20T22:08:06.956Z,48.30
2018-07-20T22:10:36.029Z,48.60
2018-07-20T22:13:05.095Z,48.60
2018-07-20T22:15:34.163Z,49.00
2018-07-20T22:18:03.230Z,48.70
2018-07-20T22:20:32.287Z,48.70
2018-07-20T22:23:01.335Z,48.70
2018-07-20T22:25:30.419Z,49.20
2018-07-20T22:27:59.513Z,49.30
2018-07-20T22:30:28.587Z,49.40
2018-07-20T22:32:57.626Z,49.70
2018-07-20T22:35:26.701Z,49.90
2018-07-20T22:37:55.747Z,49.80
2018-07-20T22:40:24.824Z,50.00
2018-07-20T22:42:53.862Z,50.30
2018-07-20T22:45:22.936Z,50.70
2018-07-20T22:47:51.981Z,50.60
2018-07-20T22:50:21.047Z,50.90
2018-07-20T22:52:50.087Z,51.00
2018-07-20T22:55:19.170Z,51.50
2018-07-20T22:57:48.211Z,51.60
2018-07-20T23:00:17.278Z,51.90
2018-07-20T23:02:46.364Z,51.70
2018-07-20T23:05:15.523Z,52.10
2018-07-20T23:07:44.589Z,52.50
2018-07-20T23:12:42.343Z,52.80
2018-07-20T23:15:11.396Z,53.00
2018-07-20T23:17:40.477Z,53.20
2018-07-20T23:20:09.528Z,53.20
2018-07-20T23:22:38.592Z,53.20
2018-07-20T23:25:07.647Z,53.70
2018-07-20T23:30:05.667Z,54.10
2018-07-20T23:32:34.744Z,54.10
2018-07-20T23:35:03.792Z,54.50
2018-07-20T23:37:32.892Z,54.80
2018-07-20T23:40:01.951Z,55.30
2018-07-20T23:42:31.011Z,55.80
2018-07-20T23:47:28.755Z,55.90
2018-07-20T23:49:57.811Z,56.20
2018-07-20T23:52:26.879Z,56.50
2018-07-20T23:57:24.671Z,56.80
